createdAt,value
2018-12-08T00:00:03.041Z,9.4
2018-12-08T00:01:12.532Z,9.3
2018-12-08T00:02:21.781Z,9.3
2018-12-08T00:03:31.153Z,9.2
2018-12-08T00:04:40.513Z,9.2
2018-12-08T00:05:49.876Z,9.2
2018-12-08T00:06:59.248Z,9.1
2018-12-08T00:08:08.633Z,9.1
2018-12-08T00:09:17.976Z,9
2018-12-08T00:10:27.374Z,9
2018-12-08T00:11:36.750Z,8.9
2018-12-08T00:12:46.085Z,8.9
2018-12-08T00:13:55.488Z,8.9
2018-12-08T00:15:04.876Z,8.8
2018-12-08T00:16:14.201Z,8.7
2018-12-08T00:17:23.558Z,8.7
2018-12-08T00:18:32.905Z,8.7
2018-12-08T00:19:42.280Z,8.7
2018-12-08T00:20:51.631Z,8.7
2018-12-08T00:22:00.985Z,8.6
2018-12-08T00:23:10.337Z,8.6
2018-12-08T00:24:19.702Z,8.6
2018-12-08T00:25:29.059Z,8.6
2018-12-08T00:26:38.423Z,8.6
2018-12-08T00:27:47.777Z,8.5
2018-12-08T00:28:57.201Z,8.5
2018-12-08T00:30:06.522Z,8.5
2018-12-08T00:31:15.847Z,8.4
2018-12-08T00:32:25.200Z,8.4
2018-12-08T00:33:34.549Z,8.4
2018-12-08T00:34:43.930Z,8.4
2018-12-08T00:35:53.274Z,8.4
2018-12-08T00:37:02.613Z,8.4
2018-12-08T00:38:12.007Z,8.3
2018-12-08T00:39:21.312Z,8.3
2018-12-08T00:40:30.664Z,8.2
2018-12-08T00:41:39.991Z,8.1
2018-12-08T00:42:49.361Z,8.1
2018-12-08T00:43:58.686Z,8
2018-12-08T00:45:08.072Z,8
2018-12-08T00:46:17.383Z,8
2018-12-08T00:47:26.795Z,8
2018-12-08T00:48:36.061Z,7.9
2018-12-08T00:49:45.438Z,7.9
2018-12-08T00:50:54.810Z,7.8
2018-12-08T00:52:04.098Z,7.8
2018-12-08T00:53:13.444Z,7.8
2018-12-08T00:54:23.251Z,7.7
2018-12-08T00:55:32.123Z,7.7
2018-12-08T00:56:41.440Z,7.7
2018-12-08T00:57:51.140Z,7.7
2018-12-08T00:59:00.244Z,7.7
2018-12-08T01:00:09.445Z,7.7
2018-12-08T01:01:18.784Z,7.6
2018-12-08T01:02:28.139Z,7.6
2018-12-08T01:03:37.704Z,7.6
2018-12-08T01:04:47.165Z,7.5
2018-12-08T01:05:56.248Z,7.6
2018-12-08T01:07:05.411Z,7.6
2018-12-08T01:08:14.829Z,7.5
2018-12-08T01:09:24.084Z,7.5
2018-12-08T01:10:33.471Z,7.5
2018-12-08T01:11:42.726Z,7.5
2018-12-08T01:12:52.048Z,7.6
2018-12-08T01:14:01.402Z,7.5
2018-12-08T01:15:10.741Z,7.6
2018-12-08T01:16:20.037Z,7.5
2018-12-08T01:17:29.364Z,7.5
2018-12-08T01:18:38.682Z,7.5
2018-12-08T01:19:48.017Z,7.5
2018-12-08T01:20:57.318Z,7.5
2018-12-08T01:22:06.656Z,7.5
2018-12-08T01:23:15.977Z,7.5
2018-12-08T01:24:25.309Z,7.5
2018-12-08T01:25:34.611Z,7.5
2018-12-08T01:26:43.964Z,7.5
2018-12-08T01:27:53.270Z,7.5
2018-12-08T01:29:02.577Z,7.5
2018-12-08T01:30:11.918Z,7.5
2018-12-08T01:31:21.251Z,7.5
2018-12-08T01:32:30.541Z,7.5
2018-12-08T01:33:40.030Z,7.6
2018-12-08T01:34:49.246Z,7.6
2018-12-08T01:35:58.521Z,7.5
2018-12-08T01:37:07.851Z,7.5
2018-12-08T01:38:17.370Z,7.5
2018-12-08T01:39:26.631Z,7.5
2018-12-08T01:40:35.860Z,7.5
2018-12-08T01:41:45.133Z,7.5
2018-12-08T01:42:54.438Z,7.5
2018-12-08T01:44:03.928Z,7.5
2018-12-08T01:45:13.168Z,7.5
2018-12-08T01:46:22.422Z,7.6
2018-12-08T01:47:31.742Z,7.5
2018-12-08T01:48:41.049Z,7.5
2018-12-08T01:49:50.432Z,7.5
2018-12-08T01:50:59.698Z,7.5
2018-12-08T01:52:09.016Z,7.5
2018-12-08T01:53:18.344Z,7.5
2018-12-08T01:54:27.656Z,7.5
2018-12-08T01:55:37.036Z,7.5
2018-12-08T01:56:46.288Z,7.5
2018-12-08T01:57:55.699Z,7.5
2018-12-08T01:59:05.132Z,7.5
2018-12-08T02:00:14.302Z,7.5
2018-12-08T02:01:23.587Z,7.5
2018-12-08T02:02:32.978Z,7.5
2018-12-08T02:03:42.250Z,7.5
2018-12-08T02:04:51.695Z,7.4
2018-12-08T02:06:00.925Z,7.4
2018-12-08T02:07:10.193Z,7.4
2018-12-08T02:08:19.553Z,7.4
2018-12-08T02:09:28.881Z,7.5
2018-12-08T02:10:38.151Z,7.4
2018-12-08T02:11:47.721Z,7.5
2018-12-08T02:12:56.893Z,7.5
2018-12-08T02:14:06.083Z,7.5
2018-12-08T02:15:15.420Z,7.5
2018-12-08T02:16:24.723Z,7.5
2018-12-08T02:17:34.058Z,7.5
2018-12-08T02:18:43.352Z,7.5
2018-12-08T02:19:52.691Z,7.5
2018-12-08T02:21:02.003Z,7.5
2018-12-08T02:22:11.316Z,7.5
2018-12-08T02:23:20.642Z,7.5
2018-12-08T02:24:29.971Z,7.5
2018-12-08T02:25:39.287Z,7.4
2018-12-08T02:26:48.611Z,7.4
2018-12-08T02:27:57.920Z,7.4
2018-12-08T02:29:07.222Z,7.3
2018-12-08T02:30:16.539Z,7.3
2018-12-08T02:31:25.953Z,7.3
2018-12-08T02:32:35.179Z,7.3
2018-12-08T02:33:44.489Z,7.2
2018-12-08T02:34:53.804Z,7.2
2018-12-08T02:36:03.134Z,7.1
2018-12-08T02:37:12.432Z,7.1
2018-12-08T02:38:21.777Z,7.1
2018-12-08T02:39:31.056Z,7.1
2018-12-08T02:40:40.388Z,7
2018-12-08T02:41:49.705Z,7
2018-12-08T02:42:58.991Z,6.9
2018-12-08T02:44:08.311Z,7
2018-12-08T02:45:17.639Z,7
2018-12-08T02:46:26.947Z,7.1
2018-12-08T02:47:36.240Z,7
2018-12-08T02:48:45.542Z,7
2018-12-08T02:49:54.842Z,7.2
2018-12-08T02:51:04.145Z,7.1
2018-12-08T02:52:19.535Z,7
2018-12-08T02:53:22.777Z,7
2018-12-08T02:54:32.095Z,7
2018-12-08T02:55:41.537Z,7
2018-12-08T02:56:50.744Z,7
2018-12-08T02:58:00.911Z,7
2018-12-08T02:59:09.584Z,7
2018-12-08T03:00:19.148Z,7.1
2018-12-08T03:01:29.599Z,7.1
2018-12-08T03:02:37.980Z,7.1
2018-12-08T03:03:46.743Z,7.1
2018-12-08T03:04:55.879Z,7.1
2018-12-08T03:06:05.126Z,7
2018-12-08T03:07:14.425Z,7
2018-12-08T03:08:23.736Z,7.1
2018-12-08T03:09:33.145Z,7.1
2018-12-08T03:10:43.441Z,7.1
2018-12-08T03:11:51.682Z,7.1
2018-12-08T03:13:00.962Z,7.1
2018-12-08T03:14:10.361Z,7.1
2018-12-08T03:15:19.557Z,7.1
2018-12-08T03:16:29.986Z,7.1
2018-12-08T03:17:38.170Z,7.1
2018-12-08T03:18:47.491Z,7.1
2018-12-08T03:19:56.798Z,7.2
2018-12-08T03:21:06.125Z,7.1
2018-12-08T03:22:15.745Z,7.2
2018-12-08T03:23:24.749Z,7.2
2018-12-08T03:24:34.003Z,7.1
2018-12-08T03:25:44.958Z,7.1
2018-12-08T03:26:54.305Z,7.1
2018-12-08T03:28:03.570Z,7.1
2018-12-08T03:29:12.885Z,7
2018-12-08T03:30:22.249Z,7
2018-12-08T03:31:31.485Z,6.9
2018-12-08T03:32:40.844Z,6.9
2018-12-08T03:33:50.168Z,6.9
2018-12-08T03:34:59.393Z,6.8
2018-12-08T03:36:08.705Z,6.8
2018-12-08T03:37:18.014Z,6.8
2018-12-08T03:38:27.308Z,6.8
2018-12-08T03:39:36.611Z,6.8
2018-12-08T03:40:45.987Z,6.8
2018-12-08T03:41:55.204Z,6.7
2018-12-08T03:43:04.504Z,6.7
2018-12-08T03:44:13.811Z,6.7
2018-12-08T03:45:23.132Z,6.8
2018-12-08T03:46:32.412Z,6.7
2018-12-08T03:47:41.800Z,6.7
2018-12-08T03:48:51.012Z,6.7
2018-12-08T03:50:00.297Z,6.7
2018-12-08T03:51:09.604Z,6.6
2018-12-08T03:52:19.168Z,6.6
2018-12-08T03:53:28.404Z,6.5
2018-12-08T03:54:37.492Z,6.5
2018-12-08T03:55:46.798Z,6.5
2018-12-08T03:56:56.085Z,6.5
2018-12-08T03:58:05.370Z,6.6
2018-12-08T03:59:14.731Z,6.6
2018-12-08T04:00:24.039Z,6.5
2018-12-08T04:01:33.260Z,6.6
2018-12-08T04:02:42.671Z,6.5
2018-12-08T04:03:51.884Z,6.5
2018-12-08T04:05:01.139Z,6.6
2018-12-08T04:06:11.242Z,6.5
2018-12-08T04:07:20.749Z,6.4
2018-12-08T04:08:29.740Z,6.4
2018-12-08T04:09:38.350Z,6.5
2018-12-08T04:10:48.679Z,6.5
2018-12-08T04:11:57.460Z,6.5
2018-12-08T04:13:07.353Z,6.4
2018-12-08T04:14:18.624Z,6.4
2018-12-08T04:15:25.615Z,6.4
2018-12-08T04:16:34.253Z,6.3
2018-12-08T04:17:43.377Z,6.3
2018-12-08T04:18:52.630Z,6.4
2018-12-08T04:20:02.068Z,6.3
2018-12-08T04:21:11.216Z,6.3
2018-12-08T04:22:20.482Z,6.4
2018-12-08T04:23:29.770Z,6.4
2018-12-08T04:24:39.071Z,6.4
2018-12-08T04:25:48.366Z,6.5
2018-12-08T04:26:57.625Z,6.5
2018-12-08T04:28:06.915Z,6.5
2018-12-08T04:29:16.212Z,6.5
2018-12-08T04:30:25.699Z,6.5
2018-12-08T04:31:34.784Z,6.6
2018-12-08T04:32:44.076Z,6.5
2018-12-08T04:33:53.359Z,6.5
2018-12-08T04:35:02.663Z,6.5
2018-12-08T04:36:11.973Z,6.5
2018-12-08T04:37:21.207Z,6.5
2018-12-08T04:38:30.498Z,6.4
2018-12-08T04:39:39.791Z,6.5
2018-12-08T04:40:49.078Z,6.5
2018-12-08T04:41:58.358Z,6.4
2018-12-08T04:43:07.654Z,6.5
2018-12-08T04:44:16.956Z,6.5
2018-12-08T04:45:26.271Z,6.5
2018-12-08T04:46:35.536Z,6.5
2018-12-08T04:47:44.851Z,6.4
2018-12-08T04:48:54.103Z,6.4
2018-12-08T04:50:03.388Z,6.3
2018-12-08T04:51:12.688Z,6.4
2018-12-08T04:52:21.967Z,6.4
2018-12-08T04:53:31.311Z,6.5
2018-12-08T04:54:40.545Z,6.4
2018-12-08T04:55:49.820Z,6.4
2018-12-08T04:56:59.123Z,6.5
2018-12-08T04:58:08.407Z,6.4
2018-12-08T04:59:17.708Z,6.4
2018-12-08T05:00:27.142Z,6.4
2018-12-08T05:01:36.265Z,6.4
2018-12-08T05:02:45.566Z,6.5
2018-12-08T05:03:54.839Z,6.4
2018-12-08T05:05:04.152Z,6.3
2018-12-08T05:06:13.438Z,6.3
2018-12-08T05:07:22.699Z,6.4
2018-12-08T05:08:32.051Z,6.4
2018-12-08T05:09:41.282Z,6.4
2018-12-08T05:10:50.576Z,6.4
2018-12-08T05:11:59.850Z,6.4
2018-12-08T05:13:09.191Z,6.4
2018-12-08T05:14:18.445Z,6.4
2018-12-08T05:15:27.729Z,6.4
2018-12-08T05:16:37.010Z,6.4
2018-12-08T05:17:46.578Z,6.4
2018-12-08T05:18:55.655Z,6.4
2018-12-08T05:20:04.909Z,6.4
2018-12-08T05:21:14.157Z,6.4
2018-12-08T05:22:23.426Z,6.4
2018-12-08T05:23:32.725Z,6.4
2018-12-08T05:24:42.024Z,6.4
2018-12-08T05:25:51.707Z,6.5
2018-12-08T05:27:01.692Z,6.4
2018-12-08T05:28:10.909Z,6.4
2018-12-08T05:29:20.305Z,6.4
2018-12-08T05:30:29.398Z,6.4
2018-12-08T05:31:39.277Z,6.4
2018-12-08T05:32:47.636Z,6.4
2018-12-08T05:33:56.505Z,6.4
2018-12-08T05:35:05.622Z,6.3
2018-12-08T05:36:15.237Z,6.4
2018-12-08T05:37:24.240Z,6.3
2018-12-08T05:38:33.506Z,6.3
2018-12-08T05:39:42.964Z,6.3
2018-12-08T05:40:52.500Z,6.3
2018-12-08T05:42:01.471Z,6.4
2018-12-08T05:43:10.816Z,6.3
2018-12-08T05:44:20.301Z,6.3
2018-12-08T05:45:29.420Z,6.4
2018-12-08T05:46:38.642Z,6.3
2018-12-08T05:47:47.900Z,6.3
2018-12-08T05:48:57.320Z,6.3
2018-12-08T05:50:06.526Z,6.3
2018-12-08T05:51:15.898Z,6.3
2018-12-08T05:52:24.949Z,6.3
2018-12-08T05:53:34.211Z,6.3
2018-12-08T05:54:43.500Z,6.3
2018-12-08T05:55:53.074Z,6.2
2018-12-08T05:57:02.123Z,6.2
2018-12-08T05:58:11.364Z,6.2
2018-12-08T05:59:20.649Z,6.2
2018-12-08T06:00:29.954Z,6.2
2018-12-08T06:01:39.244Z,6.2
2018-12-08T06:02:48.541Z,6.2
2018-12-08T06:03:57.863Z,6.2
2018-12-08T06:05:07.073Z,6.2
2018-12-08T06:06:16.354Z,6.2
2018-12-08T06:07:25.700Z,6.2
2018-12-08T06:08:34.920Z,6.2
2018-12-08T06:09:44.273Z,6.2
2018-12-08T06:10:53.498Z,6.1
2018-12-08T06:12:02.776Z,6.1
2018-12-08T06:13:12.082Z,6.1
2018-12-08T06:14:21.355Z,6.2
2018-12-08T06:15:30.632Z,6.3
2018-12-08T06:16:39.928Z,6.2
2018-12-08T06:17:49.198Z,6.3
2018-12-08T06:18:58.478Z,6.3
2018-12-08T06:20:07.827Z,6.4
2018-12-08T06:21:17.041Z,6.3
2018-12-08T06:22:26.382Z,6.3
2018-12-08T06:23:35.637Z,6.3
2018-12-08T06:24:44.906Z,6.3
2018-12-08T06:25:54.219Z,6.3
2018-12-08T06:27:03.492Z,6.3
2018-12-08T06:28:12.757Z,6.3
2018-12-08T06:29:22.056Z,6.2
2018-12-08T06:30:31.359Z,6.2
2018-12-08T06:31:40.689Z,6.2
2018-12-08T06:32:49.905Z,6.2
2018-12-08T06:33:59.190Z,6.3
2018-12-08T06:35:08.475Z,6.3
2018-12-08T06:36:17.768Z,6.2
2018-12-08T06:37:27.149Z,6.3
2018-12-08T06:38:36.335Z,6.2
2018-12-08T06:39:45.614Z,6.2
2018-12-08T06:40:54.907Z,6.2
2018-12-08T06:42:04.234Z,6.1
2018-12-08T06:43:13.489Z,6.2
2018-12-08T06:44:22.746Z,6.2
2018-12-08T06:45:32.132Z,6.2
2018-12-08T06:46:41.414Z,6.2
2018-12-08T06:47:50.625Z,6.2
2018-12-08T06:48:59.906Z,6.1
2018-12-08T06:50:09.167Z,6.1
2018-12-08T06:51:18.459Z,6.2
2018-12-08T06:52:27.740Z,6.1
2018-12-08T06:53:37.096Z,6.2
2018-12-08T06:54:46.305Z,6.1
2018-12-08T06:55:55.567Z,6.1
2018-12-08T06:57:04.862Z,6
2018-12-08T06:58:14.183Z,6
2018-12-08T06:59:23.448Z,6
2018-12-08T07:00:32.699Z,6
2018-12-08T07:01:42.009Z,6.1
2018-12-08T07:02:51.293Z,6.1
2018-12-08T07:04:00.528Z,6.1
2018-12-08T07:05:09.821Z,6.1
2018-12-08T07:06:19.126Z,6.1
2018-12-08T07:07:28.464Z,6
2018-12-08T07:08:37.776Z,6
2018-12-08T07:09:46.972Z,6
2018-12-08T07:10:56.295Z,6.1
2018-12-08T07:12:05.538Z,6.1
2018-12-08T07:13:14.811Z,6
2018-12-08T07:14:24.087Z,6
2018-12-08T07:15:33.395Z,6
2018-12-08T07:16:42.684Z,6
2018-12-08T07:17:51.932Z,6
2018-12-08T07:19:01.227Z,6
2018-12-08T07:20:10.496Z,5.9
2018-12-08T07:21:19.779Z,5.9
2018-12-08T07:22:29.121Z,6
2018-12-08T07:23:38.362Z,6
2018-12-08T07:24:47.692Z,6
2018-12-08T07:25:56.962Z,6
2018-12-08T07:27:06.223Z,6
2018-12-08T07:28:15.501Z,6
2018-12-08T07:29:24.948Z,6
2018-12-08T07:30:34.147Z,6
2018-12-08T07:31:43.359Z,6
2018-12-08T07:32:52.644Z,6
2018-12-08T07:34:01.930Z,5.9
2018-12-08T07:35:11.234Z,6
2018-12-08T07:36:20.515Z,6
2018-12-08T07:37:29.819Z,6
2018-12-08T07:38:39.117Z,6
2018-12-08T07:39:48.360Z,6
2018-12-08T07:40:57.659Z,6
2018-12-08T07:42:06.945Z,6
2018-12-08T07:43:16.219Z,6
2018-12-08T07:44:25.510Z,6
2018-12-08T07:45:34.833Z,6
2018-12-08T07:46:44.070Z,6.1
2018-12-08T07:47:53.378Z,6
2018-12-08T07:49:02.657Z,6
2018-12-08T07:50:12.073Z,6
2018-12-08T07:51:21.251Z,6
2018-12-08T07:52:30.498Z,6
2018-12-08T07:53:39.796Z,6
2018-12-08T07:54:49.133Z,6
2018-12-08T07:55:58.364Z,6
2018-12-08T07:57:07.698Z,5.9
2018-12-08T07:58:16.977Z,5.9
2018-12-08T07:59:26.247Z,6
2018-12-08T08:00:35.531Z,6
2018-12-08T08:01:44.837Z,5.9
2018-12-08T08:02:54.092Z,5.9
2018-12-08T08:04:03.405Z,5.9
2018-12-08T08:05:12.671Z,6
2018-12-08T08:06:21.986Z,6
2018-12-08T08:07:31.261Z,6
2018-12-08T08:08:40.565Z,6.1
2018-12-08T08:09:49.841Z,6.1
2018-12-08T08:10:59.134Z,6.2
2018-12-08T08:12:08.433Z,6.1
2018-12-08T08:13:17.753Z,6.2
2018-12-08T08:14:27.035Z,6.2
2018-12-08T08:15:36.369Z,6.2
2018-12-08T08:16:45.634Z,6.2
2018-12-08T08:17:54.935Z,6.2
2018-12-08T08:19:04.223Z,6.2
2018-12-08T08:20:13.563Z,6.2
2018-12-08T08:21:22.822Z,6.2
2018-12-08T08:22:32.194Z,6.1
2018-12-08T08:23:41.398Z,6.2
2018-12-08T08:24:50.696Z,6.2
2018-12-08T08:25:59.993Z,6.2
2018-12-08T08:27:09.292Z,6.2
2018-12-08T08:28:18.600Z,6.2
2018-12-08T08:29:27.868Z,6.2
2018-12-08T08:30:37.174Z,6.2
2018-12-08T08:31:46.464Z,6.2
2018-12-08T08:32:55.880Z,6.2
2018-12-08T08:34:05.111Z,6.2
2018-12-08T08:35:14.358Z,6.2
2018-12-08T08:36:23.716Z,6.2
2018-12-08T08:37:32.944Z,6.2
2018-12-08T08:38:42.233Z,6.2
2018-12-08T08:39:51.532Z,6.2
2018-12-08T08:41:00.848Z,6.2
2018-12-08T08:42:10.125Z,6.2
2018-12-08T08:43:19.404Z,6.2
2018-12-08T08:44:28.701Z,6.2
2018-12-08T08:45:37.991Z,6.2
2018-12-08T08:46:47.285Z,6.2
2018-12-08T08:47:56.583Z,6.2
2018-12-08T08:49:05.876Z,6.2
2018-12-08T08:50:15.156Z,6.2
2018-12-08T08:51:24.445Z,6.3
2018-12-08T08:52:33.737Z,6.3
2018-12-08T08:53:43.085Z,6.3
2018-12-08T08:54:52.340Z,6.4
2018-12-08T08:56:01.633Z,6.5
2018-12-08T08:57:10.928Z,6.5
2018-12-08T08:58:20.236Z,6.6
2018-12-08T08:59:29.518Z,6.6
2018-12-08T09:00:38.877Z,6.6
2018-12-08T09:01:48.154Z,6.6
2018-12-08T09:02:57.838Z,6.5
2018-12-08T09:04:06.709Z,6.6
2018-12-08T09:05:16.055Z,6.5
2018-12-08T09:06:25.328Z,6.6
2018-12-08T09:07:34.610Z,6.6
2018-12-08T09:08:43.906Z,6.6
2018-12-08T09:09:53.212Z,6.7
2018-12-08T09:11:02.622Z,6.7
2018-12-08T09:12:11.868Z,6.7
2018-12-08T09:13:21.144Z,6.7
2018-12-08T09:14:30.479Z,6.7
2018-12-08T09:15:39.783Z,6.6
2018-12-08T09:17:58.389Z,6.7
2018-12-08T09:19:07.669Z,6.6
2018-12-08T09:20:17.000Z,6.6
2018-12-08T09:21:26.457Z,6.7
2018-12-08T09:22:35.635Z,6.7
2018-12-08T09:23:44.921Z,6.7
2018-12-08T09:24:54.227Z,6.7
2018-12-08T09:26:03.534Z,6.8
2018-12-08T09:27:12.852Z,6.8
2018-12-08T09:28:22.280Z,6.8
2018-12-08T09:29:31.482Z,6.8
2018-12-08T09:30:40.834Z,6.8
2018-12-08T09:31:50.102Z,6.8
2018-12-08T09:32:59.416Z,6.9
2018-12-08T09:34:08.724Z,6.9
2018-12-08T09:35:18.031Z,6.8
2018-12-08T09:36:27.373Z,6.9
2018-12-08T09:37:36.685Z,6.9
2018-12-08T09:38:46.024Z,6.9
2018-12-08T09:39:57.076Z,7
2018-12-08T09:41:04.693Z,7
2018-12-08T09:42:13.934Z,7
2018-12-08T09:43:23.293Z,7
2018-12-08T09:44:32.566Z,6.9
2018-12-08T09:45:42.224Z,7
2018-12-08T09:46:51.197Z,7
2018-12-08T09:48:00.657Z,7.1
2018-12-08T09:49:09.841Z,7.1
2018-12-08T09:50:19.166Z,7
2018-12-08T09:51:28.491Z,7.1
2018-12-08T09:52:37.805Z,7.2
2018-12-08T09:53:47.140Z,7.2
2018-12-08T09:54:56.474Z,7.2
2018-12-08T09:56:05.782Z,7.3
2018-12-08T09:57:15.101Z,7.3
2018-12-08T09:58:24.431Z,7.3
2018-12-08T09:59:33.769Z,7.3
2018-12-08T10:00:43.152Z,7.3
2018-12-08T10:01:52.442Z,7.3
2018-12-08T10:03:01.734Z,7.3
2018-12-08T10:04:11.289Z,7.3
2018-12-08T10:05:20.379Z,7.3
2018-12-08T10:06:29.723Z,7.3
2018-12-08T10:07:39.055Z,7.3
2018-12-08T10:08:48.376Z,7.3
2018-12-08T10:09:57.733Z,7.3
2018-12-08T10:11:07.029Z,7.4
2018-12-08T10:12:16.385Z,7.5
2018-12-08T10:13:25.771Z,7.4
2018-12-08T10:14:35.026Z,7.3
2018-12-08T10:15:44.438Z,7.4
2018-12-08T10:16:53.686Z,7.4
2018-12-08T10:18:03.032Z,7.5
2018-12-08T10:19:12.382Z,7.5
2018-12-08T10:20:21.805Z,7.5
2018-12-08T10:21:31.018Z,7.5
2018-12-08T10:22:40.400Z,7.5
2018-12-08T10:23:49.748Z,7.5
2018-12-08T10:24:59.035Z,7.5
2018-12-08T10:26:08.330Z,7.5
2018-12-08T10:27:17.661Z,7.5
2018-12-08T10:28:27.057Z,7.5
2018-12-08T10:29:36.312Z,7.5
2018-12-08T10:30:45.643Z,7.5
2018-12-08T10:31:54.974Z,7.5
2018-12-08T10:33:04.308Z,7.6
2018-12-08T10:34:13.629Z,7.5
2018-12-08T10:35:22.972Z,7.6
2018-12-08T10:36:32.306Z,7.6
2018-12-08T10:37:41.622Z,7.6
2018-12-08T10:38:50.947Z,7.6
2018-12-08T10:40:00.306Z,7.6
2018-12-08T10:41:09.814Z,7.6
2018-12-08T10:42:18.962Z,7.6
2018-12-08T10:43:28.305Z,7.6
2018-12-08T10:44:37.632Z,7.7
2018-12-08T10:45:46.968Z,7.6
2018-12-08T10:46:56.332Z,7.6
2018-12-08T10:48:05.641Z,7.6
2018-12-08T10:49:14.961Z,7.7
2018-12-08T10:50:24.304Z,7.6
2018-12-08T10:51:33.636Z,7.7
2018-12-08T10:52:42.958Z,7.7
2018-12-08T10:53:52.306Z,7.7
2018-12-08T10:55:01.631Z,7.6
2018-12-08T10:56:10.963Z,7.6
2018-12-08T10:57:20.276Z,7.7
2018-12-08T10:58:29.618Z,7.6
2018-12-08T10:59:38.937Z,7.6
2018-12-08T11:00:48.493Z,7.6
2018-12-08T11:01:57.614Z,7.6
2018-12-08T11:03:06.995Z,7.6
2018-12-08T11:04:16.486Z,7.6
2018-12-08T11:05:25.682Z,7.6
2018-12-08T11:06:34.953Z,7.7
2018-12-08T11:07:44.308Z,7.7
2018-12-08T11:08:53.598Z,7.7
2018-12-08T11:10:03.061Z,7.7
2018-12-08T11:11:12.249Z,7.7
2018-12-08T11:12:21.744Z,7.7
2018-12-08T11:13:30.925Z,7.7
2018-12-08T11:14:40.246Z,7.8
2018-12-08T11:15:49.585Z,7.8
2018-12-08T11:16:58.995Z,7.8
2018-12-08T11:18:08.234Z,7.9
2018-12-08T11:19:17.569Z,7.8
2018-12-08T11:20:26.970Z,7.9
2018-12-08T11:21:36.252Z,7.9
2018-12-08T11:22:45.587Z,7.9
2018-12-08T11:23:54.946Z,7.9
2018-12-08T11:25:04.228Z,7.9
2018-12-08T11:26:13.566Z,7.9
2018-12-08T11:27:22.912Z,7.9
2018-12-08T11:28:32.246Z,7.9
2018-12-08T11:29:41.578Z,7.9
2018-12-08T11:30:50.918Z,7.9
2018-12-08T11:32:00.243Z,7.9
2018-12-08T11:33:09.569Z,7.9
2018-12-08T11:34:18.976Z,7.8
2018-12-08T11:35:28.262Z,7.9
2018-12-08T11:36:37.616Z,7.8
2018-12-08T11:37:46.942Z,7.8
2018-12-08T11:38:56.289Z,7.9
2018-12-08T11:40:05.711Z,7.9
2018-12-08T11:41:14.962Z,7.9
2018-12-08T11:42:24.293Z,7.9
2018-12-08T11:43:35.252Z,7.9
2018-12-08T11:44:44.612Z,7.9
2018-12-08T11:45:54.070Z,7.9
2018-12-08T11:47:04.394Z,7.9
2018-12-08T11:48:12.645Z,7.9
2018-12-08T11:49:21.929Z,7.9
2018-12-08T11:50:31.273Z,7.9
2018-12-08T11:51:40.694Z,7.9
2018-12-08T11:52:49.970Z,8
2018-12-08T11:53:59.277Z,8
2018-12-08T11:55:08.637Z,8
2018-12-08T11:56:17.976Z,8
2018-12-08T11:57:27.311Z,8.1
2018-12-08T11:58:36.789Z,8.1
2018-12-08T11:59:45.982Z,8.1
2018-12-08T12:00:55.787Z,8.1
2018-12-08T12:02:04.766Z,8.2
2018-12-08T12:03:14.010Z,8.1
2018-12-08T12:04:23.372Z,8.2
2018-12-08T12:05:32.706Z,8.2
2018-12-08T12:06:42.078Z,8.2
2018-12-08T12:07:51.381Z,8.2
2018-12-08T12:09:00.738Z,8.2
2018-12-08T12:10:10.151Z,8.2
2018-12-08T12:11:19.859Z,8.2
2018-12-08T12:12:28.736Z,8.2
2018-12-08T12:13:38.094Z,8.3
2018-12-08T12:14:47.499Z,8.3
2018-12-08T12:15:56.824Z,8.3
2018-12-08T12:17:06.118Z,8.3
2018-12-08T12:18:15.450Z,8.3
2018-12-08T12:19:24.805Z,8.3
2018-12-08T12:20:34.158Z,8.3
2018-12-08T12:21:43.475Z,8.3
2018-12-08T12:22:52.863Z,8.3
2018-12-08T12:24:02.195Z,8.3
2018-12-08T12:25:11.511Z,8.3
2018-12-08T12:26:20.845Z,8.4
2018-12-08T12:27:30.201Z,8.4
2018-12-08T12:28:39.548Z,8.4
2018-12-08T12:29:49.049Z,8.4
2018-12-08T12:30:58.247Z,8.4
2018-12-08T12:32:07.580Z,8.4
2018-12-08T12:33:16.930Z,8.4
2018-12-08T12:34:26.294Z,8.4
2018-12-08T12:35:35.627Z,8.4
2018-12-08T12:36:44.968Z,8.4
2018-12-08T12:37:54.334Z,8.4
2018-12-08T12:39:03.662Z,8.4
2018-12-08T12:40:13.017Z,8.5
2018-12-08T12:41:22.360Z,8.4
2018-12-08T12:42:31.739Z,8.4
2018-12-08T12:43:41.079Z,8.4
2018-12-08T12:44:50.411Z,8.5
2018-12-08T12:45:59.754Z,8.5
2018-12-08T12:47:09.116Z,8.4
2018-12-08T12:48:18.470Z,8.4
2018-12-08T12:49:27.812Z,8.4
2018-12-08T12:50:37.158Z,8.4
2018-12-08T12:51:46.502Z,8.4
2018-12-08T12:52:55.928Z,8.5
2018-12-08T12:54:05.208Z,8.5
2018-12-08T12:55:14.574Z,8.5
2018-12-08T12:56:23.927Z,8.5
2018-12-08T12:57:33.256Z,8.5
2018-12-08T12:58:42.596Z,8.5
2018-12-08T12:59:51.955Z,8.5
2018-12-08T13:01:01.377Z,8.5
2018-12-08T13:02:10.721Z,8.5
2018-12-08T13:03:20.040Z,8.5
2018-12-08T13:04:29.355Z,8.5
2018-12-08T13:05:38.709Z,8.5
2018-12-08T13:06:48.073Z,8.5
2018-12-08T13:07:57.404Z,8.5
2018-12-08T13:09:06.761Z,8.5
2018-12-08T13:10:16.125Z,8.5
2018-12-08T13:11:25.462Z,8.5
2018-12-08T13:12:34.816Z,8.5
2018-12-08T13:13:44.176Z,8.5
2018-12-08T13:14:53.592Z,8.5
2018-12-08T13:16:02.866Z,8.5
2018-12-08T13:17:12.272Z,8.5
2018-12-08T13:18:21.616Z,8.5
2018-12-08T13:19:30.918Z,8.6
2018-12-08T13:20:40.285Z,8.6
2018-12-08T13:21:49.645Z,8.6
2018-12-08T13:22:58.987Z,8.6
2018-12-08T13:24:08.346Z,8.6
2018-12-08T13:25:17.735Z,8.6
2018-12-08T13:26:27.101Z,8.6
2018-12-08T13:27:36.401Z,8.6
2018-12-08T13:28:45.791Z,8.6
2018-12-08T13:29:55.097Z,8.6
2018-12-08T13:31:04.505Z,8.7
2018-12-08T13:32:13.801Z,8.7
2018-12-08T13:33:23.151Z,8.7
2018-12-08T13:34:32.523Z,8.7
2018-12-08T13:35:41.900Z,8.7
2018-12-08T13:36:51.250Z,8.6
2018-12-08T13:38:00.606Z,8.7
2018-12-08T13:39:09.980Z,8.6
2018-12-08T13:40:19.333Z,8.6
2018-12-08T13:41:28.643Z,8.6
2018-12-08T13:42:37.995Z,8.6
2018-12-08T13:43:48.874Z,8.6
2018-12-08T13:44:56.810Z,8.6
2018-12-08T13:46:06.307Z,8.6
2018-12-08T13:47:15.431Z,8.6
2018-12-08T13:48:24.766Z,8.6
2018-12-08T13:49:35.856Z,8.4
2018-12-08T13:50:43.469Z,8.1
2018-12-08T13:51:52.864Z,8.1
2018-12-08T13:53:02.147Z,7.7
2018-12-08T13:54:11.501Z,7.7
2018-12-08T13:55:20.860Z,7.6
2018-12-08T13:56:30.200Z,7.6
2018-12-08T13:57:39.560Z,7.6
2018-12-08T13:58:48.923Z,7.4
2018-12-08T13:59:58.233Z,7.5
2018-12-08T14:01:07.607Z,7.5
2018-12-08T14:02:17.200Z,7.5
2018-12-08T14:03:26.235Z,7.5
2018-12-08T14:04:35.601Z,7.4
2018-12-08T14:05:44.916Z,7.4
2018-12-08T14:06:54.195Z,7.4
2018-12-08T14:08:03.948Z,7.3
2018-12-08T14:09:12.853Z,7.3
2018-12-08T14:10:22.256Z,7.3
2018-12-08T14:11:31.619Z,7.3
2018-12-08T14:12:40.933Z,7.3
2018-12-08T14:13:50.150Z,7.2
2018-12-08T14:14:59.590Z,7.2
2018-12-08T14:16:08.827Z,7.2
2018-12-08T14:17:18.106Z,7.2
2018-12-08T14:18:27.425Z,7.2
2018-12-08T14:19:36.777Z,7.2
2018-12-08T14:20:46.106Z,7.2
2018-12-08T14:21:55.390Z,7.2
2018-12-08T14:23:04.756Z,7.1
2018-12-08T14:24:14.048Z,7.1
2018-12-08T14:25:23.341Z,7
2018-12-08T14:26:32.650Z,7
2018-12-08T14:27:42.794Z,7
2018-12-08T14:28:51.366Z,6.9
2018-12-08T14:30:00.583Z,7
2018-12-08T14:31:09.901Z,6.9
2018-12-08T14:32:19.229Z,7
2018-12-08T14:33:28.528Z,6.9
2018-12-08T14:34:37.902Z,7
2018-12-08T14:35:47.178Z,7
2018-12-08T14:36:56.534Z,7
2018-12-08T14:38:05.987Z,7
2018-12-08T14:39:15.093Z,7
2018-12-08T14:40:24.448Z,7.1
2018-12-08T14:41:33.697Z,7.1
2018-12-08T14:42:43.014Z,7.1
2018-12-08T14:43:52.340Z,7.1
2018-12-08T14:45:01.652Z,7.1
2018-12-08T14:46:10.954Z,7.1
2018-12-08T14:47:20.330Z,7.2
2018-12-08T14:48:30.576Z,7.1
2018-12-08T14:49:38.888Z,7.1
2018-12-08T14:50:48.211Z,7
2018-12-08T14:51:57.515Z,7.1
2018-12-08T14:53:06.856Z,7.1
2018-12-08T14:54:16.139Z,7.1
2018-12-08T14:55:25.471Z,7.1
2018-12-08T14:56:34.756Z,7.1
2018-12-08T14:57:44.074Z,7.2
2018-12-08T14:58:53.391Z,7.1
2018-12-08T15:00:02.684Z,7.1
2018-12-08T15:01:12.193Z,7.1
2018-12-08T15:02:21.405Z,7.1
2018-12-08T15:03:30.629Z,7.1
2018-12-08T15:04:39.929Z,7.1
2018-12-08T15:05:49.238Z,7.1
2018-12-08T15:06:58.578Z,7.1
2018-12-08T15:08:07.856Z,7.1
2018-12-08T15:09:17.158Z,7.1
2018-12-08T15:10:26.723Z,7.1
2018-12-08T15:11:35.805Z,7.1
2018-12-08T15:12:45.096Z,7.1
2018-12-08T15:13:54.495Z,7.1
2018-12-08T15:15:03.718Z,7.2
2018-12-08T15:16:13.032Z,7.1
2018-12-08T15:17:22.360Z,7.1
2018-12-08T15:18:31.897Z,7.2
2018-12-08T15:19:40.998Z,7.2
2018-12-08T15:20:50.291Z,7.2
2018-12-08T15:21:59.590Z,7.2
2018-12-08T15:23:08.903Z,7.1
2018-12-08T15:24:18.272Z,7.1
2018-12-08T15:25:27.525Z,6.9
2018-12-08T15:26:36.864Z,6.9
2018-12-08T15:27:46.140Z,7
2018-12-08T15:28:55.438Z,6.9
2018-12-08T15:30:04.756Z,7
2018-12-08T15:31:14.058Z,7
2018-12-08T15:32:23.488Z,7.1
2018-12-08T15:33:32.683Z,7.1
2018-12-08T15:34:42.015Z,7
2018-12-08T15:35:51.351Z,7
2018-12-08T15:37:00.638Z,7.1
2018-12-08T15:38:09.908Z,7.1
2018-12-08T15:39:19.218Z,7.2
2018-12-08T15:40:28.540Z,7.1
2018-12-08T15:41:37.837Z,7.1
2018-12-08T15:42:47.329Z,7.1
2018-12-08T15:43:56.503Z,7.1
2018-12-08T15:45:05.757Z,7.1
2018-12-08T15:46:15.357Z,7.2
2018-12-08T15:47:24.386Z,7.1
2018-12-08T15:48:33.689Z,7.2
2018-12-08T15:49:43.017Z,7.2
2018-12-08T15:50:52.296Z,7.2
2018-12-08T15:52:01.625Z,7.2
2018-12-08T15:53:10.909Z,7.2
2018-12-08T15:54:20.228Z,7.2
2018-12-08T15:55:29.527Z,7.2
2018-12-08T15:56:38.870Z,7.2
2018-12-08T15:57:48.148Z,7.3
2018-12-08T15:58:57.479Z,7.2
2018-12-08T16:00:06.773Z,7.2
2018-12-08T16:01:16.088Z,7.3
2018-12-08T16:02:25.443Z,7.3